Weather at Deauville-Saint-Gatien Airport

Public forecast

Using degrees Celsius for public forecast. Weather courtesy of forecast.io.

Current aviation weather report (METAR) for Deauville-Saint-Gatien Airport

Retrieved 2021/12/07 11:30 UTC (27 minutes ago):

LFRG 071130Z AUTO 16015KT 9999 SCT016 BKN024 BKN030 06/05 Q1001 TEMPO 3000 RA BKN008 BKN015CB BECMG 17025G40KT

Closest aviation forecast (TAF) to Deauville-Saint-Gatien Airport

Closest forecast is Le Havre Octeville Airport, 10.4 nm (19.3 km) NNW. Retrieved 2021/12/07 06:51 UTC (5 hours ago):

TAF LFOH 070500Z 0706/0806 20010KT 9999 SCT030 BECMG 0708/0712 14015G30KT BECMG 0712/0714 16025G40KT 3000 RA BECMG 0717/0720 22015G30KT 9999 NSW